Time;durP1;ratioP1;P1;durP2;ratioP2;P2;SDS_P1;SDS_P2;PMS_P1;PMS_P2;Temp;Humidity;BMP_temperature;BMP_pressure;BME280_temperature;BME280_humidity;BME280_pressure;Samples;Min_cycle;Max_cycle;Signal;HPM_P1;HPM_P2
2023/06/01 00:02:00;;;;;;;5.65;3.90;;;;;;;10.34;100.00;102151.41;6221248;23;20028;-77
2023/06/01 00:04:25;;;;;;;5.55;3.08;;;;;;;10.29;100.00;102135.75;6247549;23;20011;-77
2023/06/01 00:06:51;;;;;;;9.43;4.80;;;;;;;10.31;100.00;102140.94;6171066;23;20004;-77
2023/06/01 00:09:17;;;;;;;8.13;3.50;;;;;;;10.17;100.00;102142.19;6170821;23;20024;-77
2023/06/01 00:11:43;;;;;;;11.55;4.50;;;;;;;10.05;100.00;102149.50;6220915;23;20035;-77
2023/06/01 00:14:09;;;;;;;8.65;4.57;;;;;;;9.94;100.00;102154.16;6247717;23;20008;-77
2023/06/01 00:16:37;;;;;;;9.57;4.90;;;;;;;9.76;100.00;102162.84;6220892;23;20150;-78
2023/06/01 00:19:03;;;;;;;9.50;5.13;;;;;;;9.58;100.00;102164.47;6196226;23;20429;-77
2023/06/01 00:21:35;;;;;;;8.82;4.63;;;;;;;9.45;100.00;102154.84;6221168;23;20000;-78
2023/06/01 00:24:01;;;;;;;7.57;4.68;;;;;;;9.34;100.00;102154.94;6196811;23;20095;-77
2023/06/01 00:26:27;;;;;;;5.65;3.72;;;;;;;9.29;100.00;102138.38;6195547;23;19996;-77
2023/06/01 00:28:52;;;;;;;10.48;4.57;;;;;;;9.45;100.00;102154.00;6247560;23;20031;-77
2023/06/01 00:31:18;;;;;;;6.43;4.22;;;;;;;9.54;100.00;102155.84;6170904;23;20012;-77
2023/06/01 00:33:44;;;;;;;7.88;4.60;;;;;;;9.58;100.00;102160.00;6220530;23;20008;-77
2023/06/01 00:36:10;;;;;;;8.05;4.45;;;;;;;9.66;100.00;102162.84;6220821;23;20008;-78
2023/06/01 00:38:35;;;;;;;7.80;3.85;;;;;;;9.68;100.00;102168.06;6195783;23;20039;-77
2023/06/01 00:41:01;;;;;;;9.65;5.20;;;;;;;9.70;100.00;102163.41;6195608;23;20547;-77
2023/06/01 00:43:26;;;;;;;8.43;5.13;;;;;;;9.62;100.00;102166.78;6247517;23;20004;-77
2023/06/01 00:45:52;;;;;;;7.72;4.55;;;;;;;9.50;100.00;102150.88;6220664;23;20011;-78
2023/06/01 00:48:18;;;;;;;4.43;2.63;;;;;;;9.50;100.00;102151.75;6247368;23;20448;-77
2023/06/01 00:50:44;;;;;;;8.57;4.60;;;;;;;9.66;100.00;102172.75;6220828;23;20004;-77
2023/06/01 00:53:18;;;;;;;11.88;5.65;;;;;;;9.68;100.00;102177.00;6195530;23;20007;-78
2023/06/01 00:55:44;;;;;;;13.48;5.85;;;;;;;9.57;100.00;102173.53;6170728;23;20424;-78
2023/06/01 00:58:12;;;;;;;10.30;5.10;;;;;;;9.39;100.00;102174.19;6170686;23;20670;-78
2023/06/01 01:00:37;;;;;;;11.05;5.97;;;;;;;9.19;100.00;102169.69;6208101;23;20413;-77
2023/06/01 01:03:07;;;;;;;9.55;4.70;;;;;;;8.94;100.00;102160.19;6245564;23;20015;-77
2023/06/01 01:05:34;;;;;;;12.73;5.00;;;;;;;8.86;100.00;102168.88;6196233;23;20011;-77
2023/06/01 01:08:11;;;;;;;9.35;4.53;;;;;;;8.77;100.00;102164.31;6195488;23;20387;-78
2023/06/01 01:11:00;;;;;;;12.35;4.80;;;;;;;8.74;100.00;102180.66;6220430;23;20012;-77
2023/06/01 01:14:03;;;;;;;8.40;4.22;;;;;;;8.70;100.00;102166.63;6220612;23;20008;-77
2023/06/01 01:16:34;;;;;;;13.75;5.25;;;;;;;8.50;100.00;102125.44;6144638;23;20066;-78
2023/06/01 01:19:24;;;;;;;7.50;3.58;;;;;;;8.77;100.00;102162.47;6220517;23;20089;-78
2023/06/01 01:22:03;;;;;;;8.77;4.72;;;;;;;8.82;100.00;102161.25;6245390;23;20061;-78
2023/06/01 01:24:48;;;;;;;9.88;5.25;;;;;;;8.85;100.00;102153.78;6220517;23;20004;-79
2023/06/01 01:27:17;;;;;;;6.82;4.53;;;;;;;8.81;100.00;102133.53;6195295;23;20008;-79
2023/06/01 01:29:44;;;;;;;11.95;5.32;;;;;;;8.87;100.00;102140.25;6245546;23;20004;-79
2023/06/01 01:32:10;;;;;;;10.48;5.03;;;;;;;8.82;100.00;102146.00;6195072;23;20000;-79
2023/06/01 01:34:39;;;;;;;9.93;5.00;;;;;;;8.76;100.00;102143.84;6245224;23;20073;-78
2023/06/01 01:37:05;;;;;;;8.18;3.55;;;;;;;8.47;100.00;102109.59;6220779;23;20075;-80
2023/06/01 01:39:30;;;;;;;11.25;5.80;;;;;;;8.59;100.00;102138.03;6220172;23;20032;-79
2023/06/01 01:41:56;;;;;;;8.88;4.53;;;;;;;8.58;100.00;102139.03;6195175;23;20043;-79
2023/06/01 01:44:22;;;;;;;9.07;5.53;;;;;;;8.57;100.00;102137.34;6219889;23;20098;-79
2023/06/01 01:47:06;;;;;;;9.93;4.90;;;;;;;8.24;100.00;102087.38;6220135;23;20488;-78
2023/06/01 01:49:43;;;;;;;11.15;5.28;;;;;;;8.48;100.00;102129.22;6245382;23;20004;-81
2023/06/01 01:52:32;;;;;;;10.82;5.03;;;;;;;8.44;100.00;102133.13;6245432;23;20008;-79
2023/06/01 01:54:58;;;;;;;5.68;3.33;;;;;;;8.44;100.00;102127.75;6245492;23;19996;-79
2023/06/01 01:57:24;;;;;;;10.52;4.80;;;;;;;8.40;100.00;102108.41;6219939;23;20015;-79
2023/06/01 01:59:50;;;;;;;9.10;4.50;;;;;;;8.50;100.00;102125.44;6194798;23;20012;-79
2023/06/01 02:02:17;;;;;;;12.50;5.78;;;;;;;8.45;100.00;102121.44;6195049;23;20407;-78
2023/06/01 02:04:45;;;;;;;10.05;5.03;;;;;;;8.40;100.00;102129.84;6245270;23;20003;-79
2023/06/01 02:07:11;;;;;;;10.93;5.68;;;;;;;8.32;100.00;102127.78;6220204;23;20078;-79
2023/06/01 02:09:38;;;;;;;9.27;5.05;;;;;;;8.23;100.00;102123.19;6219750;23;20433;-78
2023/06/01 02:12:04;;;;;;;9.52;4.90;;;;;;;8.19;100.00;102116.38;6219778;23;20000;-81
2023/06/01 02:14:30;;;;;;;10.55;4.60;;;;;;;8.33;100.00;102117.91;6244900;23;20012;-78
2023/06/01 02:16:55;;;;;;;6.45;3.28;;;;;;;8.48;100.00;102116.66;6246558;22;20015;-78
2023/06/01 02:19:21;;;;;;;10.23;5.38;;;;;;;8.58;100.00;102114.06;6245080;23;20139;-78
2023/06/01 02:21:47;;;;;;;7.63;4.40;;;;;;;8.66;100.00;102113.41;6220058;23;20498;-79
2023/06/01 02:24:13;;;;;;;9.55;4.97;;;;;;;8.56;100.00;102086.53;6219764;23;20379;-77
2023/06/01 02:26:39;;;;;;;10.07;5.70;;;;;;;8.52;100.00;102074.34;6244935;23;20000;-79
2023/06/01 02:29:07;;;;;;;12.32;5.85;;;;;;;8.78;100.00;102110.50;6194710;23;20008;-78
2023/06/01 02:31:33;;;;;;;8.63;5.05;;;;;;;8.68;100.00;102089.97;6220564;23;20022;-78
2023/06/01 02:33:59;;;;;;;8.90;5.03;;;;;;;8.84;100.00;102109.16;6219784;23;20007;-78
2023/06/01 02:36:28;;;;;;;10.45;4.95;;;;;;;8.78;100.00;102105.16;6219931;23;20004;-77
2023/06/01 02:38:55;;;;;;;10.13;5.28;;;;;;;8.75;100.00;102107.25;6246483;22;20011;-78
2023/06/01 02:41:21;;;;;;;4.68;2.22;;;;;;;8.79;100.00;102112.25;6219457;23;20011;-79
2023/06/01 02:43:47;;;;;;;9.40;4.70;;;;;;;8.78;100.00;102107.84;6245116;23;20000;-80
2023/06/01 02:46:13;;;;;;;13.48;5.47;;;;;;;8.77;100.00;102108.81;6246473;22;20000;-79
2023/06/01 02:48:41;;;;;;;10.10;5.55;;;;;;;8.60;100.00;102096.03;6219589;23;20000;-79
2023/06/01 02:51:06;;;;;;;6.53;3.55;;;;;;;8.55;100.00;102109.81;6246251;23;20011;-79
2023/06/01 02:53:32;;;;;;;17.70;6.57;;;;;;;8.56;100.00;102107.97;6244741;23;20004;-78
2023/06/01 02:55:58;;;;;;;10.45;5.82;;;;;;;8.58;100.00;102101.50;6220547;23;20004;-79
2023/06/01 02:58:23;;;;;;;9.63;4.30;;;;;;;8.61;100.00;102087.00;6247021;23;20058;-78
2023/06/01 03:00:50;;;;;;;8.13;4.38;;;;;;;8.73;100.00;102099.34;6248558;23;20014;-79
2023/06/01 03:03:16;;;;;;;9.95;5.28;;;;;;;8.76;100.00;102092.88;6248640;23;20031;-78
2023/06/01 03:05:43;;;;;;;4.63;3.13;;;;;;;8.71;100.00;102090.59;6196546;23;20027;-78
2023/06/01 03:08:08;;;;;;;9.05;4.80;;;;;;;8.71;100.00;102079.88;6221507;23;20429;-78
2023/06/01 03:10:34;;;;;;;11.38;5.75;;;;;;;8.75;100.00;102081.28;6248513;23;20007;-77
2023/06/01 03:13:00;;;;;;;14.30;4.97;;;;;;;8.76;100.00;102084.84;6196296;23;20000;-79
2023/06/01 03:15:27;;;;;;;10.48;5.32;;;;;;;8.89;100.00;102095.34;6221555;23;20074;-78
2023/06/01 03:17:53;;;;;;;12.02;5.38;;;;;;;8.92;100.00;102095.94;6196600;23;20008;-78
2023/06/01 03:20:18;;;;;;;14.35;5.47;;;;;;;8.88;100.00;102091.81;6221258;23;20000;-77
2023/06/01 03:22:45;;;;;;;11.07;5.65;;;;;;;8.85;100.00;102092.06;6171698;23;20008;-78
2023/06/01 03:25:12;;;;;;;11.80;5.68;;;;;;;8.91;100.00;102096.91;6171630;23;20011;-79
2023/06/01 03:27:41;;;;;;;15.00;6.28;;;;;;;8.93;100.00;102102.16;6221453;23;19996;-81
2023/06/01 03:30:11;;;;;;;14.63;6.97;;;;;;;8.90;100.00;102103.25;6171701;23;20008;-78
2023/06/01 03:32:37;;;;;;;8.07;3.85;;;;;;;8.81;100.00;102093.31;6196385;23;20008;-78
2023/06/01 03:35:07;;;;;;;11.73;6.70;;;;;;;8.74;100.00;102089.47;6171775;23;20027;-79
2023/06/01 03:37:34;;;;;;;10.82;4.78;;;;;;;8.87;100.00;102095.50;6196771;23;20032;-79
2023/06/01 03:40:01;;;;;;;6.45;3.92;;;;;;;8.83;100.00;102098.56;6196011;23;20031;-78
2023/06/01 03:42:26;;;;;;;8.45;4.32;;;;;;;8.83;100.00;102103.91;6221159;23;19996;-78
2023/06/01 03:44:52;;;;;;;14.48;6.63;;;;;;;8.85;100.00;102096.59;6196495;23;20070;-79
2023/06/01 03:47:17;;;;;;;10.35;4.90;;;;;;;8.81;100.00;102101.34;6195988;23;20058;-78
2023/06/01 03:49:43;;;;;;;7.82;3.90;;;;;;;8.80;100.00;102099.66;6171522;23;20004;-78
2023/06/01 03:52:09;;;;;;;11.63;6.00;;;;;;;8.73;100.00;102094.00;6196383;23;20439;-78
2023/06/01 03:54:35;;;;;;;12.18;5.45;;;;;;;8.76;100.00;102095.56;6221349;23;20008;-78
2023/06/01 03:57:01;;;;;;;9.20;4.40;;;;;;;8.67;100.00;102089.13;6221079;23;20015;-77
2023/06/01 03:59:27;;;;;;;12.75;5.88;;;;;;;8.76;100.00;102114.34;6247848;23;20054;-78
2023/06/01 04:01:53;;;;;;;9.80;5.53;;;;;;;8.75;100.00;102100.06;6221548;23;20008;-78
2023/06/01 04:04:21;;;;;;;14.75;6.95;;;;;;;8.74;100.00;102102.88;6221103;23;20306;-78
2023/06/01 04:06:49;;;;;;;9.82;5.65;;;;;;;8.67;100.00;102099.84;6195709;23;20008;-78
2023/06/01 04:09:15;;;;;;;12.25;6.45;;;;;;;8.48;100.00;102099.72;6196408;23;20117;-77
2023/06/01 04:11:41;;;;;;;9.48;5.70;;;;;;;8.41;100.00;102103.91;6196264;23;20417;-77
2023/06/01 04:14:06;;;;;;;8.07;4.38;;;;;;;8.33;100.00;102099.97;6195825;23;20087;-77
2023/06/01 04:16:32;;;;;;;11.48;6.05;;;;;;;8.30;100.00;102100.25;6247754;23;20038;-78
2023/06/01 04:18:57;;;;;;;11.93;6.50;;;;;;;8.31;100.00;102099.28;6195881;23;20008;-78
2023/06/01 04:21:23;;;;;;;9.65;5.93;;;;;;;8.35;100.00;102105.22;6247705;23;20443;-77
2023/06/01 04:23:49;;;;;;;12.68;6.55;;;;;;;8.32;100.00;102094.78;6196815;23;20011;-78
2023/06/01 04:26:17;;;;;;;12.50;6.43;;;;;;;8.37;100.00;102100.59;6202094;23;20059;-79
2023/06/01 04:28:46;;;;;;;11.52;6.15;;;;;;;8.35;100.00;102087.31;6196815;23;20003;-78
2023/06/01 04:31:19;;;;;;;16.48;7.00;;;;;;;8.52;100.00;102107.38;6221456;23;20050;-77
2023/06/01 04:33:45;;;;;;;13.32;6.43;;;;;;;8.50;100.00;102103.97;6197002;23;20004;-77
2023/06/01 04:36:14;;;;;;;10.18;5.13;;;;;;;8.53;100.00;102111.75;6220634;23;20073;-78
2023/06/01 04:38:42;;;;;;;9.88;4.13;;;;;;;8.61;100.00;102115.63;6220558;23;20011;-78
2023/06/01 04:41:09;;;;;;;11.38;5.72;;;;;;;8.66;100.00;102114.25;6220926;23;20020;-77
2023/06/01 04:43:39;;;;;;;13.15;6.43;;;;;;;8.71;100.00;102116.56;6195554;23;20004;-77
2023/06/01 04:46:05;;;;;;;11.20;5.32;;;;;;;8.72;100.00;102119.09;6171399;23;20004;-79
2023/06/01 04:48:31;;;;;;;15.20;5.97;;;;;;;8.77;100.00;102111.50;6195506;23;20011;-77
2023/06/01 04:50:58;;;;;;;7.32;3.80;;;;;;;8.90;100.00;102122.03;6195706;23;20035;-77
2023/06/01 04:53:26;;;;;;;17.23;7.38;;;;;;;8.88;100.00;102115.09;6195507;23;20007;-77
2023/06/01 04:55:56;;;;;;;13.57;7.30;;;;;;;8.91;100.00;102118.38;6220425;23;20436;-77
2023/06/01 04:58:21;;;;;;;13.77;6.55;;;;;;;8.93;100.00;102115.56;6247326;23;20440;-78
2023/06/01 05:00:47;;;;;;;13.35;7.18;;;;;;;9.02;100.00;102126.38;6247489;23;20040;-77
2023/06/01 05:03:13;;;;;;;9.05;5.47;;;;;;;9.09;100.00;102110.56;6195528;23;20328;-77
2023/06/01 05:05:38;;;;;;;11.70;5.70;;;;;;;9.27;100.00;102112.66;6220445;23;20046;-77
2023/06/01 05:08:04;;;;;;;17.35;7.22;;;;;;;9.39;100.00;102096.31;6195331;23;20391;-78
2023/06/01 05:10:30;;;;;;;8.35;5.63;;;;;;;10.28;100.00;102115.19;6246881;23;20084;-76
2023/06/01 05:12:55;;;;;;;10.43;5.25;;;;;;;11.11;100.00;102109.28;6220307;23;20433;-77
2023/06/01 05:15:21;;;;;;;14.23;7.32;;;;;;;11.66;100.00;102117.44;6195343;23;20380;-77
2023/06/01 05:17:47;;;;;;;13.35;6.78;;;;;;;12.11;100.00;102116.63;6246936;23;20019;-78
2023/06/01 05:20:13;;;;;;;11.82;6.00;;;;;;;12.30;100.00;102116.50;6219755;23;20005;-77
2023/06/01 05:22:39;;;;;;;8.98;4.63;;;;;;;12.29;100.00;102125.56;6195499;23;20436;-77
2023/06/01 05:25:07;;;;;;;10.73;6.35;;;;;;;12.77;100.00;102102.72;6195499;23;20004;-77
2023/06/01 05:27:33;;;;;;;11.85;6.15;;;;;;;13.40;100.00;102114.28;6246653;23;20027;-77
2023/06/01 05:29:58;;;;;;;9.13;4.75;;;;;;;13.57;100.00;102078.19;6195249;23;20428;-77
2023/06/01 05:32:24;;;;;;;12.10;6.10;;;;;;;13.44;100.00;102112.94;6247080;23;20484;-77
2023/06/01 05:34:50;;;;;;;9.60;5.43;;;;;;;12.72;100.00;102106.88;6195287;23;20054;-77
2023/06/01 05:37:15;;;;;;;11.55;6.57;;;;;;;12.28;100.00;102112.25;6219802;23;20079;-77
2023/06/01 05:39:41;;;;;;;11.77;5.88;;;;;;;12.10;100.00;102112.25;6220306;23;20011;-76
2023/06/01 05:42:06;;;;;;;9.70;5.22;;;;;;;12.42;100.00;102095.53;6220267;23;20036;-77
2023/06/01 05:44:32;;;;;;;13.05;6.28;;;;;;;13.60;100.00;102102.22;6194997;23;20012;-78
2023/06/01 05:46:58;;;;;;;10.10;4.93;;;;;;;14.51;100.00;102104.09;6219883;23;20008;-77
2023/06/01 05:49:23;;;;;;;11.30;6.78;;;;;;;15.11;98.29;102085.75;6220321;23;20004;-78
2023/06/01 05:51:50;;;;;;;5.95;4.22;;;;;;;15.77;93.99;102097.22;6194994;23;20425;-78
2023/06/01 05:54:16;;;;;;;11.23;6.47;;;;;;;16.32;91.39;102106.22;6220295;23;20028;-78
2023/06/01 05:56:41;;;;;;;12.02;5.70;;;;;;;16.84;86.66;102113.63;6195054;23;20330;-77
2023/06/01 05:59:07;;;;;;;9.35;4.63;;;;;;;17.26;82.42;102110.31;6195124;23;20004;-76
2023/06/01 06:01:32;;;;;;;12.50;6.45;;;;;;;17.62;80.58;102114.97;6246306;23;20317;-78
2023/06/01 06:03:58;;;;;;;8.55;4.65;;;;;;;17.85;78.93;102101.28;6246813;23;20007;-78
2023/06/01 06:06:25;;;;;;;7.32;5.18;;;;;;;18.21;75.04;102117.59;6219674;23;20011;-77
2023/06/01 06:08:51;;;;;;;7.93;4.50;;;;;;;18.24;73.49;102113.63;6219665;23;20004;-77
2023/06/01 06:11:16;;;;;;;11.35;5.88;;;;;;;18.42;73.65;102110.47;6220184;23;20476;-76
2023/06/01 06:13:42;;;;;;;7.43;4.85;;;;;;;18.67;72.08;102100.84;6246393;23;20066;-77
2023/06/01 06:16:08;;;;;;;10.07;6.20;;;;;;;18.99;70.47;102109.50;6219527;23;20001;-77
2023/06/01 06:18:33;;;;;;;7.72;5.75;;;;;;;19.16;66.60;102090.97;6246556;23;20111;-78
2023/06/01 06:21:00;;;;;;;6.78;4.55;;;;;;;19.37;66.49;102108.25;6219644;23;20000;-77
2023/06/01 06:23:27;;;;;;;9.55;5.70;;;;;;;19.55;64.98;102101.25;6219654;23;20010;-77
2023/06/01 06:25:52;;;;;;;8.60;5.03;;;;;;;19.77;61.92;102102.00;6219823;23;20390;-78
2023/06/01 06:28:18;;;;;;;6.45;4.47;;;;;;;19.85;61.43;102097.41;6219496;23;20027;-77
2023/06/01 06:30:44;;;;;;;10.00;5.90;;;;;;;19.88;62.64;102094.25;6194776;23;20039;-79
2023/06/01 06:33:09;;;;;;;9.05;5.85;;;;;;;20.09;62.43;102088.66;6219533;23;20420;-77
2023/06/01 06:35:36;;;;;;;10.30;5.28;;;;;;;20.28;60.86;102084.25;6219437;23;20000;-77
2023/06/01 06:38:02;;;;;;;9.32;5.95;;;;;;;20.51;57.70;102103.00;6246497;23;20014;-78
2023/06/01 06:40:30;;;;;;;7.53;5.05;;;;;;;20.54;57.16;102099.03;6219498;23;20001;-78
2023/06/01 06:42:56;;;;;;;9.70;5.28;;;;;;;20.55;57.08;102098.81;6219576;23;20038;-79
2023/06/01 06:45:21;;;;;;;8.45;5.57;;;;;;;20.65;56.10;102092.94;6194637;23;20031;-78
2023/06/01 06:47:47;;;;;;;9.23;5.72;;;;;;;20.79;56.45;102099.22;6194481;23;20313;-78
2023/06/01 06:50:13;;;;;;;6.88;4.80;;;;;;;20.97;55.58;102095.88;6194657;23;20443;-77
2023/06/01 06:52:38;;;;;;;7.30;4.38;;;;;;;21.21;55.47;102097.91;6194554;23;20443;-78
2023/06/01 06:55:05;;;;;;;11.02;5.93;;;;;;;21.47;55.36;102105.25;6194569;23;20008;-78
2023/06/01 06:57:30;;;;;;;10.90;6.20;;;;;;;21.73;52.55;102092.50;6219603;23;20425;-77
2023/06/01 06:59:57;;;;;;;9.75;5.03;;;;;;;21.86;52.05;102089.72;6223203;23;20054;-78
2023/06/01 07:02:22;;;;;;;9.25;5.60;;;;;;;21.84;51.42;102108.25;6219784;23;20016;-78
2023/06/01 07:04:48;;;;;;;6.78;4.43;;;;;;;21.90;50.82;102085.47;6246355;23;20065;-78
2023/06/01 07:07:14;;;;;;;6.63;4.40;;;;;;;22.11;51.40;102100.72;6246337;22;20000;-78
2023/06/01 07:09:40;;;;;;;8.98;5.10;;;;;;;22.09;50.74;102108.31;6244533;23;20008;-78
2023/06/01 07:12:07;;;;;;;11.43;6.13;;;;;;;22.17;52.12;102107.22;6244961;23;20011;-78
2023/06/01 07:14:32;;;;;;;10.40;5.65;;;;;;;22.56;51.51;102105.28;6219691;23;20042;-78
2023/06/01 07:16:58;;;;;;;10.82;6.45;;;;;;;22.83;51.74;102108.63;6219243;23;19996;-76
2023/06/01 07:19:24;;;;;;;8.88;5.88;;;;;;;23.04;49.41;102104.69;6244827;23;20012;-76
2023/06/01 07:21:49;;;;;;;9.63;5.88;;;;;;;23.19;49.47;102105.16;6219475;23;20008;-76
2023/06/01 07:24:18;;;;;;;9.88;5.32;;;;;;;23.18;48.53;102103.50;6219584;23;20008;-76
2023/06/01 07:26:44;;;;;;;10.13;6.18;;;;;;;23.30;49.35;102100.81;6194698;23;20089;-76
2023/06/01 07:29:11;;;;;;;10.52;5.53;;;;;;;23.57;48.82;102103.25;6244798;23;20429;-77
2023/06/01 07:31:38;;;;;;;9.70;5.72;;;;;;;23.54;49.11;102090.81;6244728;23;20015;-76
2023/06/01 07:34:04;;;;;;;10.65;6.55;;;;;;;23.91;49.01;102110.03;6219711;23;20062;-76
2023/06/01 07:36:33;;;;;;;9.60;6.63;;;;;;;24.24;48.30;102103.19;6194443;23;20302;-77
2023/06/01 07:38:59;;;;;;;8.32;5.43;;;;;;;24.70;45.50;102112.66;6220211;23;20004;-77
2023/06/01 07:41:25;;;;;;;9.57;5.70;;;;;;;24.42;46.69;102102.31;6219193;23;20011;-77
2023/06/01 07:43:51;;;;;;;10.93;7.00;;;;;;;24.44;47.55;102105.66;6220728;23;20015;-77
2023/06/01 07:46:16;;;;;;;10.85;7.00;;;;;;;24.75;47.25;102101.78;6246194;23;20011;-77
2023/06/01 07:48:42;;;;;;;10.23;6.70;;;;;;;24.51;44.90;102100.94;6246180;23;20389;-77
2023/06/01 07:51:07;;;;;;;9.20;5.43;;;;;;;24.36;45.11;102110.41;6196054;23;20004;-77
2023/06/01 07:53:33;;;;;;;11.10;6.20;;;;;;;24.45;46.76;102105.47;6246419;23;20421;-76
2023/06/01 07:55:59;;;;;;;9.30;6.60;;;;;;;24.78;47.80;102099.41;6247956;22;20004;-76
2023/06/01 07:58:25;;;;;;;10.70;7.38;;;;;;;25.51;45.59;102115.63;6246010;23;20035;-76
2023/06/01 08:00:51;;;;;;;10.52;7.72;;;;;;;25.78;44.76;102089.22;6247915;22;20004;-76
2023/06/01 08:03:17;;;;;;;8.38;6.85;;;;;;;26.40;43.95;102106.91;6170992;23;20004;-77
2023/06/01 08:05:44;;;;;;;9.00;5.72;;;;;;;26.70;42.04;102101.94;6247662;23;20000;-76
2023/06/01 08:08:10;;;;;;;8.05;5.60;;;;;;;26.32;42.14;102099.88;6194054;23;20008;-76
2023/06/01 08:10:39;;;;;;;9.48;7.13;;;;;;;25.93;42.58;102071.31;6195244;23;20032;-78
2023/06/01 08:13:07;;;;;;;10.95;6.38;;;;;;;26.11;42.17;102106.94;6246663;23;20400;-78
2023/06/01 08:15:34;;;;;;;9.38;5.95;;;;;;;26.20;44.01;102113.75;6220303;23;20000;-79
2023/06/01 08:17:59;;;;;;;9.70;6.80;;;;;;;26.70;43.80;102106.59;6246297;23;20070;-80
2023/06/01 08:20:27;;;;;;;12.48;7.25;;;;;;;27.47;41.11;102110.50;6220630;23;20379;-79
2023/06/01 08:22:53;;;;;;;9.77;6.75;;;;;;;27.52;41.57;102113.31;6220600;23;20004;-79
2023/06/01 08:25:18;;;;;;;10.73;6.65;;;;;;;27.69;39.81;102107.75;6220903;23;20054;-79
2023/06/01 08:27:44;;;;;;;7.60;5.10;;;;;;;27.80;39.61;102098.47;6220671;23;20413;-79
2023/06/01 08:30:11;;;;;;;10.35;6.40;;;;;;;27.45;39.19;102085.91;6220461;23;20003;-79
2023/06/01 08:32:37;;;;;;;10.50;7.35;;;;;;;27.49;41.23;102106.38;6170878;23;20000;-79
2023/06/01 08:35:05;;;;;;;9.02;6.95;;;;;;;27.89;40.55;102105.25;6195767;23;20008;-80
2023/06/01 08:37:30;;;;;;;7.35;5.35;;;;;;;28.19;38.35;102096.44;6195718;23;20015;-79
2023/06/01 08:39:56;;;;;;;10.80;6.85;;;;;;;28.34;39.50;102092.13;6170515;23;20409;-79
2023/06/01 08:42:57;;;;;;;9.25;5.82;;;;;;;28.37;38.05;102097.13;6220708;23;20012;-79
2023/06/01 08:45:23;;;;;;;9.75;6.30;;;;;;;28.40;38.35;102089.16;6172943;23;20008;-80
2023/06/01 08:47:52;;;;;;;6.85;5.07;;;;;;;27.94;38.69;102098.94;6221014;23;20001;-80
2023/06/01 08:50:18;;;;;;;11.10;6.35;;;;;;;27.92;40.75;102096.44;6195279;23;20008;-79
2023/06/01 08:52:46;;;;;;;6.07;4.35;;;;;;;28.22;37.92;102093.13;6220609;23;20039;-79
2023/06/01 08:55:13;;;;;;;8.25;5.38;;;;;;;27.90;39.50;102092.28;6170730;23;20016;-79
2023/06/01 08:57:42;;;;;;;9.80;5.78;;;;;;;28.18;40.35;102093.91;6170860;23;20016;-79
2023/06/01 09:00:10;;;;;;;9.38;6.00;;;;;;;28.96;40.03;102090.69;6247010;23;20015;-85
2023/06/01 09:02:36;;;;;;;6.75;5.45;;;;;;;29.22;38.04;102045.47;6148498;23;20058;-90
2023/06/01 09:05:02;;;;;;;10.80;6.25;;;;;;;29.70;34.30;102089.72;6248611;23;20004;-90
2023/06/01 09:07:28;;;;;;;11.63;5.80;;;;;;;29.23;36.30;102073.97;6195772;23;20007;-79
2023/06/01 09:09:53;;;;;;;10.23;6.28;;;;;;;29.08;37.82;102091.34;6220399;23;20007;-79
2023/06/01 09:12:29;;;;;;;5.93;4.28;;;;;;;29.38;35.87;102087.91;6195233;23;20008;-79
2023/06/01 09:15:18;;;;;;;9.00;5.97;;;;;;;29.21;37.07;102084.50;6196160;23;20065;-79
2023/06/01 09:17:46;;;;;;;8.40;5.68;;;;;;;29.56;36.58;102086.59;6190838;23;20016;-78
2023/06/01 09:20:13;;;;;;;9.25;6.13;;;;;;;29.90;36.18;102086.16;6170435;23;20010;-78
2023/06/01 09:22:45;;;;;;;10.18;6.00;;;;;;;30.43;36.52;102082.09;6195052;23;20440;-78
2023/06/01 09:25:13;;;;;;;8.30;5.78;;;;;;;30.83;35.37;102085.97;6220059;23;20066;-79
2023/06/01 09:27:59;;;;;;;7.07;5.35;;;;;;;31.14;34.22;102069.19;6194924;23;20500;-79
2023/06/01 09:30:36;;;;;;;7.18;5.40;;;;;;;30.94;33.18;102056.22;6219825;23;19996;-79
2023/06/01 09:33:15;;;;;;;7.00;4.93;;;;;;;30.94;34.40;102069.28;6195046;23;20400;-79
2023/06/01 09:35:46;;;;;;;8.57;5.60;;;;;;;30.84;33.43;102059.84;6219754;23;20039;-81
2023/06/01 09:38:12;;;;;;;7.03;5.40;;;;;;;30.50;34.66;102058.78;6194870;23;20043;-81
2023/06/01 09:40:39;;;;;;;8.32;5.13;;;;;;;30.74;35.09;102059.84;6169734;23;20035;-80
2023/06/01 09:43:25;;;;;;;7.28;5.25;;;;;;;31.22;33.51;102051.13;6145240;23;20444;-80
2023/06/01 09:46:13;;;;;;;9.57;5.30;;;;;;;31.19;32.51;102051.69;6194034;23;20036;-79
2023/06/01 09:48:39;;;;;;;7.93;4.93;;;;;;;30.72;33.88;102028.72;6195372;23;20026;-79
2023/06/01 09:51:05;;;;;;;6.63;5.60;;;;;;;30.79;33.74;102043.16;6219574;23;20480;-79
2023/06/01 09:53:43;;;;;;;8.38;5.10;;;;;;;30.98;33.06;102046.19;6169907;23;20008;-78
2023/06/01 09:56:09;;;;;;;8.88;5.68;;;;;;;30.88;34.07;102049.84;6220016;23;20079;-78
2023/06/01 09:58:39;;;;;;;7.57;5.78;;;;;;;30.84;32.49;102050.69;6219810;23;20030;-78
2023/06/01 10:01:08;;;;;;;7.63;5.50;;;;;;;30.74;33.85;102045.13;6213860;23;20008;-78
2023/06/01 10:03:35;;;;;;;9.27;6.07;;;;;;;30.98;33.17;102048.97;6244855;23;20562;-78
2023/06/01 10:06:02;;;;;;;8.30;5.40;;;;;;;31.17;31.73;102051.13;6194381;23;20008;-78
2023/06/01 10:08:29;;;;;;;6.90;4.18;;;;;;;30.73;32.04;102043.47;6169742;23;20019;-78
2023/06/01 10:10:55;;;;;;;7.45;5.20;;;;;;;30.31;32.16;102052.94;6194874;23;20004;-78
2023/06/01 10:13:22;;;;;;;9.60;5.80;;;;;;;29.56;33.80;102036.72;6219167;23;20058;-79
2023/06/01 10:15:54;;;;;;;7.55;5.72;;;;;;;29.65;35.69;102040.63;6244951;23;20070;-79
2023/06/01 10:18:21;;;;;;;7.85;5.97;;;;;;;30.73;34.18;102049.84;6219955;23;20076;-79
2023/06/01 10:20:47;;;;;;;10.18;6.35;;;;;;;31.20;33.31;102039.44;6245173;23;20000;-79
2023/06/01 10:23:13;;;;;;;8.77;5.70;;;;;;;30.96;32.52;102042.88;6245062;23;20022;-78
2023/06/01 10:25:43;;;;;;;11.07;5.90;;;;;;;30.62;33.66;102037.94;6245041;23;20031;-79
2023/06/01 10:28:10;;;;;;;7.70;6.10;;;;;;;30.72;34.13;102039.00;6219851;23;20332;-79
2023/06/01 10:30:36;;;;;;;9.30;6.40;;;;;;;30.75;33.36;102038.44;6219891;23;20004;-78
2023/06/01 10:33:02;;;;;;;7.75;6.40;;;;;;;30.67;32.50;102046.25;6244657;23;20439;-79
2023/06/01 10:35:28;;;;;;;9.63;6.40;;;;;;;30.59;34.66;102032.94;6217990;23;20008;-78
2023/06/01 10:38:06;;;;;;;8.45;6.40;;;;;;;30.96;34.13;102031.78;6242146;23;20008;-78
2023/06/01 10:40:35;;;;;;;9.27;5.93;;;;;;;31.13;33.33;102036.16;6242103;23;20507;-78
2023/06/01 10:43:02;;;;;;;9.30;6.93;;;;;;;30.88;33.12;102037.88;6241905;23;20002;-78
2023/06/01 10:45:36;;;;;;;9.35;6.68;;;;;;;30.54;34.01;102035.72;6217208;23;20000;-78
2023/06/01 10:48:03;;;;;;;7.97;5.85;;;;;;;30.80;32.71;102030.09;6216721;23;20036;-78
2023/06/01 10:50:29;;;;;;;7.07;5.32;;;;;;;30.81;33.04;102020.72;6218014;23;20095;-77
2023/06/01 10:52:56;;;;;;;7.35;5.47;;;;;;;30.62;33.74;102028.78;6244807;23;20004;-77
2023/06/01 10:55:22;;;;;;;8.85;5.68;;;;;;;30.40;34.80;102026.28;6194359;23;20024;-78
2023/06/01 10:57:48;;;;;;;11.07;7.18;;;;;;;30.39;34.78;102019.09;6219488;23;20005;-78
2023/06/01 11:00:20;;;;;;;8.95;5.80;;;;;;;30.86;34.72;102027.09;6244694;23;20014;-79
2023/06/01 11:02:53;;;;;;;10.88;7.00;;;;;;;31.24;33.48;102018.31;6244709;23;20004;-78
2023/06/01 11:05:46;;;;;;;10.32;7.43;;;;;;;31.31;33.93;102024.41;6244813;23;20026;-78
2023/06/01 11:08:29;;;;;;;9.95;7.55;;;;;;;31.46;34.50;102018.78;6244742;23;20567;-79
2023/06/01 11:10:59;;;;;;;7.82;5.68;;;;;;;31.79;32.48;102010.81;6244539;23;20069;-80
2023/06/01 11:13:33;;;;;;;8.82;6.13;;;;;;;31.35;31.36;102003.25;6194299;23;20451;-79
2023/06/01 11:16:13;;;;;;;11.32;8.52;;;;;;;31.13;35.19;102011.16;6219739;23;20000;-78
2023/06/01 11:18:46;;;;;;;12.55;7.30;;;;;;;31.62;34.56;102018.69;6246155;23;20502;-79
2023/06/01 11:21:21;;;;;;;10.65;7.82;;;;;;;31.70;31.62;102018.94;6221381;23;20014;-79
2023/06/01 11:23:48;;;;;;;11.07;8.45;;;;;;;31.44;33.10;102020.22;6221315;23;20443;-79
2023/06/01 11:26:24;;;;;;;13.57;8.52;;;;;;;31.28;32.72;102005.53;6221419;23;20336;-78